createdAt,value
2022-11-19T00:00:49.725Z,11.60
2022-11-19T00:03:18.153Z,11.60
2022-11-19T00:05:46.294Z,11.60
2022-11-19T00:08:16.122Z,11.60
2022-11-19T00:10:42.937Z,11.60
2022-11-19T00:13:09.704Z,11.50
2022-11-19T00:15:36.690Z,11.50
2022-11-19T00:18:07.149Z,11.40
2022-11-19T00:20:34.374Z,11.50
2022-11-19T00:23:01.378Z,11.50
2022-11-19T00:25:29.532Z,11.50
2022-11-19T00:27:56.965Z,11.50
2022-11-19T00:30:46.325Z,11.50
2022-11-19T00:33:10.645Z,11.50
2022-11-19T00:35:37.425Z,11.50
2022-11-19T00:38:04.222Z,11.50
2022-11-19T00:40:31.029Z,11.50
2022-11-19T00:43:16.336Z,11.40
2022-11-19T00:45:44.609Z,11.40
2022-11-19T00:48:11.557Z,11.40
2022-11-19T00:50:38.317Z,11.30
2022-11-19T00:53:05.188Z,11.30
2022-11-19T00:55:32.044Z,11.20
2022-11-19T00:57:58.812Z,11.20
2022-11-19T01:00:26.099Z,11.20
2022-11-19T01:02:52.906Z,11.20
2022-11-19T01:05:19.731Z,11.10
2022-11-19T01:07:46.953Z,11.10
2022-11-19T01:10:13.760Z,11.10
2022-11-19T01:13:00.572Z,11.20
2022-11-19T01:15:27.419Z,11.40
2022-11-19T01:17:54.259Z,11.50
2022-11-19T01:20:21.125Z,11.70
2022-11-19T01:22:48.024Z,11.80
2022-11-19T01:25:14.867Z,11.80
2022-11-19T01:27:41.671Z,11.90
2022-11-19T01:30:08.861Z,12.00
2022-11-19T01:32:35.689Z,12.00
2022-11-19T01:35:02.498Z,12.10
2022-11-19T01:37:29.271Z,12.10
2022-11-19T01:39:56.285Z,12.10
2022-11-19T01:42:48.483Z,12.10
2022-11-19T01:45:54.520Z,12.10
2022-11-19T01:48:24.854Z,12.10
2022-11-19T01:50:53.762Z,12.10
2022-11-19T01:53:21.243Z,12.10
2022-11-19T01:55:48.081Z,12.20
2022-11-19T01:58:17.177Z,12.20
2022-11-19T02:00:43.981Z,12.10
2022-11-19T02:03:11.902Z,12.10
2022-11-19T02:05:39.014Z,12.10
2022-11-19T02:08:07.352Z,12.10
2022-11-19T02:10:53.226Z,12.10
2022-11-19T02:13:23.610Z,12.20
2022-11-19T02:16:21.730Z,12.20
2022-11-19T02:18:55.388Z,12.20
2022-11-19T02:22:09.553Z,12.20
2022-11-19T02:24:54.377Z,12.20
2022-11-19T02:27:40.136Z,12.10
2022-11-19T02:30:08.135Z,12.10
2022-11-19T02:32:44.982Z,12.10
2022-11-19T02:35:17.376Z,12.10
2022-11-19T02:38:19.508Z,12.10
2022-11-19T02:40:57.164Z,12.10
2022-11-19T02:43:38.829Z,12.10
2022-11-19T02:46:13.452Z,12.10
2022-11-19T02:48:42.351Z,12.10
2022-11-19T02:51:09.245Z,12.10
2022-11-19T02:53:36.119Z,12.10
2022-11-19T02:56:13.627Z,12.00
2022-11-19T02:59:09.991Z,12.10
2022-11-19T03:01:57.011Z,12.10
2022-11-19T03:04:32.656Z,12.10
2022-11-19T03:07:10.705Z,12.10
2022-11-19T03:09:40.661Z,12.10
2022-11-19T03:12:25.373Z,12.00
2022-11-19T03:15:20.805Z,12.00
2022-11-19T03:17:47.609Z,11.90
2022-11-19T03:20:24.065Z,11.90
2022-11-19T03:23:05.106Z,12.00
2022-11-19T03:25:44.778Z,12.00
2022-11-19T03:28:16.913Z,11.90
2022-11-19T03:30:44.271Z,11.90
2022-11-19T03:33:41.245Z,11.80
2022-11-19T03:36:14.547Z,11.80
2022-11-19T03:38:43.433Z,11.90
2022-11-19T03:41:10.415Z,11.80
2022-11-19T03:43:39.087Z,11.80
2022-11-19T03:46:07.906Z,11.80
2022-11-19T03:48:34.702Z,11.80
2022-11-19T03:51:05.255Z,11.90
2022-11-19T03:53:32.067Z,11.90
2022-11-19T03:55:59.711Z,11.90
2022-11-19T03:58:26.889Z,12.00
2022-11-19T04:00:53.802Z,12.00
2022-11-19T04:03:20.688Z,12.00
2022-11-19T04:05:47.729Z,12.00
2022-11-19T04:08:14.498Z,11.90
2022-11-19T04:10:41.331Z,11.90
2022-11-19T04:13:08.128Z,11.90
2022-11-19T04:15:35.048Z,11.80
2022-11-19T04:18:01.886Z,11.80
2022-11-19T04:20:28.667Z,11.80
2022-11-19T04:22:55.444Z,11.90
2022-11-19T04:25:22.270Z,11.90
2022-11-19T04:27:49.080Z,11.90
2022-11-19T04:30:16.199Z,11.90
2022-11-19T04:32:43.138Z,11.90
2022-11-19T04:35:10.222Z,12.00
2022-11-19T04:37:37.076Z,12.00
2022-11-19T04:40:04.120Z,12.00
2022-11-19T04:42:30.924Z,12.00
2022-11-19T04:44:58.537Z,12.10
2022-11-19T04:47:25.296Z,12.10
2022-11-19T04:49:52.152Z,12.10
2022-11-19T04:52:18.914Z,12.10
2022-11-19T04:54:45.688Z,12.10
2022-11-19T04:57:12.524Z,12.10
2022-11-19T04:59:39.280Z,12.20
2022-11-19T05:02:06.051Z,12.20
2022-11-19T05:04:32.855Z,12.10
2022-11-19T05:06:59.642Z,12.10
2022-11-19T05:09:26.486Z,12.10
2022-11-19T05:11:53.284Z,12.10
2022-11-19T05:14:20.071Z,12.00
2022-11-19T05:16:46.901Z,12.00
2022-11-19T05:19:13.849Z,12.00
2022-11-19T05:21:40.605Z,11.90
2022-11-19T05:24:07.744Z,11.90
2022-11-19T05:26:34.501Z,11.90
2022-11-19T05:29:01.265Z,11.90
2022-11-19T05:31:28.071Z,11.70
2022-11-19T05:33:54.817Z,11.60
2022-11-19T05:36:21.624Z,11.50
2022-11-19T05:38:48.392Z,11.40
2022-11-19T05:41:15.211Z,11.30
2022-11-19T05:43:41.976Z,11.20
2022-11-19T05:46:08.784Z,11.10
2022-11-19T05:48:35.532Z,11.00
2022-11-19T05:51:02.289Z,11.00
2022-11-19T05:53:29.124Z,11.00
2022-11-19T05:55:55.879Z,11.00
2022-11-19T05:58:22.712Z,11.00
2022-11-19T06:00:53.301Z,10.90
2022-11-19T06:03:20.090Z,10.80
2022-11-19T06:05:46.899Z,10.80
2022-11-19T06:08:13.853Z,10.80
2022-11-19T06:10:40.662Z,10.70
2022-11-19T06:13:07.454Z,10.70
2022-11-19T06:15:34.311Z,10.60
2022-11-19T06:18:01.076Z,10.50
2022-11-19T06:20:27.835Z,10.40
2022-11-19T06:22:54.661Z,10.40
2022-11-19T06:25:21.547Z,10.40
2022-11-19T06:27:48.365Z,10.30
2022-11-19T06:30:16.188Z,10.30
2022-11-19T06:32:43.639Z,10.10
2022-11-19T06:35:10.669Z,10.00
2022-11-19T06:37:37.456Z,10.00
2022-11-19T06:40:04.741Z,9.90
2022-11-19T06:42:37.730Z,9.70
2022-11-19T06:45:14.393Z,9.60
2022-11-19T06:47:41.652Z,9.60
2022-11-19T06:50:09.252Z,9.50
2022-11-19T06:52:36.191Z,9.50
2022-11-19T06:55:02.975Z,9.50
2022-11-19T06:57:29.780Z,9.50
2022-11-19T06:59:57.010Z,9.50
2022-11-19T07:02:23.773Z,9.50
2022-11-19T07:04:50.645Z,9.50
2022-11-19T07:07:17.654Z,9.30
2022-11-19T07:09:44.457Z,9.20
2022-11-19T07:12:11.202Z,9.20
2022-11-19T07:14:38.032Z,9.00
2022-11-19T07:17:05.340Z,9.00
2022-11-19T07:19:32.229Z,8.90
2022-11-19T07:21:59.084Z,8.90
2022-11-19T07:24:26.749Z,8.90
2022-11-19T07:26:53.594Z,8.90
2022-11-19T07:29:21.947Z,8.70
2022-11-19T07:31:50.656Z,8.60
2022-11-19T07:34:17.816Z,8.50
2022-11-19T07:36:45.299Z,8.50
2022-11-19T07:39:12.289Z,8.50
2022-11-19T07:41:57.675Z,8.30
2022-11-19T07:44:24.440Z,8.30
2022-11-19T07:46:51.210Z,8.10
2022-11-19T07:49:19.759Z,7.90
2022-11-19T07:51:46.697Z,7.90
2022-11-19T07:54:14.241Z,7.70
2022-11-19T07:56:41.120Z,7.60
2022-11-19T07:59:07.963Z,7.60
2022-11-19T08:01:34.902Z,7.70
2022-11-19T08:04:02.484Z,7.70
2022-11-19T08:06:30.022Z,7.70
2022-11-19T08:08:57.099Z,7.70
2022-11-19T08:11:24.264Z,7.60
2022-11-19T08:13:51.673Z,7.70
2022-11-19T08:16:38.386Z,7.50
2022-11-19T08:19:12.472Z,7.50
2022-11-19T08:21:46.506Z,7.40
2022-11-19T08:24:13.794Z,7.40
2022-11-19T08:26:40.970Z,7.40
2022-11-19T08:29:13.067Z,7.40
2022-11-19T08:31:43.335Z,7.40
2022-11-19T08:34:10.099Z,7.20
2022-11-19T08:36:36.958Z,7.20
2022-11-19T08:39:04.262Z,7.20
2022-11-19T08:41:49.908Z,7.20
2022-11-19T08:44:18.105Z,7.10
2022-11-19T08:46:45.109Z,7.10
2022-11-19T08:49:12.174Z,7.10
2022-11-19T08:51:39.129Z,7.10
2022-11-19T08:54:06.039Z,7.20
2022-11-19T08:56:33.335Z,7.10
2022-11-19T08:59:03.005Z,7.20
2022-11-19T09:01:30.450Z,7.20
2022-11-19T09:03:57.374Z,7.30
2022-11-19T09:06:24.253Z,7.30
2022-11-19T09:08:51.040Z,7.10
2022-11-19T09:11:18.677Z,7.10
2022-11-19T09:13:45.551Z,7.00
2022-11-19T09:16:12.449Z,6.90
2022-11-19T09:18:40.187Z,6.90
2022-11-19T09:21:07.868Z,6.80
2022-11-19T09:23:34.661Z,6.90
2022-11-19T09:26:07.165Z,6.90
2022-11-19T09:28:34.033Z,6.80
2022-11-19T09:31:06.240Z,6.80
2022-11-19T09:33:34.324Z,6.80
2022-11-19T09:36:01.301Z,6.80
2022-11-19T09:38:28.215Z,6.70
2022-11-19T09:40:56.133Z,6.70
2022-11-19T09:43:44.149Z,6.80
2022-11-19T09:46:17.665Z,6.70
2022-11-19T09:48:45.758Z,6.90
2022-11-19T09:51:17.199Z,7.00
2022-11-19T09:53:55.362Z,6.90
2022-11-19T09:56:27.980Z,6.70
2022-11-19T09:58:54.761Z,6.60
2022-11-19T10:01:21.648Z,6.50
2022-11-19T10:03:53.487Z,6.60
2022-11-19T10:06:30.815Z,6.60
2022-11-19T10:09:03.645Z,6.60
2022-11-19T10:11:48.348Z,6.40
2022-11-19T10:14:56.569Z,6.30
2022-11-19T10:17:43.776Z,6.30
2022-11-19T10:20:30.511Z,6.30
2022-11-19T10:23:05.833Z,6.40
2022-11-19T10:25:35.821Z,6.40
2022-11-19T10:28:11.136Z,6.40
2022-11-19T10:30:37.930Z,6.40
2022-11-19T10:33:29.648Z,6.50
2022-11-19T10:36:02.316Z,6.50
2022-11-19T10:38:53.456Z,6.30
2022-11-19T10:41:39.221Z,6.20
2022-11-19T10:44:43.299Z,6.20
2022-11-19T10:47:13.616Z,6.20
2022-11-19T10:49:41.823Z,6.30
2022-11-19T10:52:35.544Z,6.30
2022-11-19T10:55:31.453Z,6.30
2022-11-19T10:58:38.218Z,6.40
2022-11-19T11:01:11.984Z,6.40
2022-11-19T11:03:46.768Z,6.30
2022-11-19T11:06:13.797Z,6.30
2022-11-19T11:08:54.035Z,6.40
2022-11-19T11:11:51.305Z,6.30
2022-11-19T11:14:38.294Z,6.30
2022-11-19T11:17:18.334Z,6.30
2022-11-19T11:19:57.237Z,6.10
2022-11-19T11:22:25.428Z,6.10
2022-11-19T11:24:52.173Z,6.00
2022-11-19T11:27:29.024Z,6.00
2022-11-19T11:30:25.253Z,6.10
2022-11-19T11:32:52.114Z,6.20
2022-11-19T11:35:33.395Z,6.20
2022-11-19T11:38:01.628Z,6.30
2022-11-19T11:40:28.473Z,6.30
2022-11-19T11:42:55.256Z,6.40
2022-11-19T11:45:28.293Z,6.30
2022-11-19T11:47:55.055Z,6.30
2022-11-19T11:50:26.023Z,6.20
2022-11-19T11:52:53.757Z,6.20
2022-11-19T11:55:23.288Z,6.10
2022-11-19T11:58:03.827Z,6.10
2022-11-19T12:00:42.811Z,6.20
2022-11-19T12:03:13.889Z,6.30
2022-11-19T12:06:08.521Z,6.30
2022-11-19T12:08:54.008Z,6.30
2022-11-19T12:11:59.110Z,6.30
2022-11-19T12:14:52.125Z,6.20
2022-11-19T12:17:28.110Z,6.30
2022-11-19T12:20:03.873Z,6.40
2022-11-19T12:22:30.689Z,6.50
2022-11-19T12:25:08.609Z,6.50
2022-11-19T12:27:35.433Z,6.50
2022-11-19T12:30:05.319Z,6.50
2022-11-19T12:32:44.608Z,6.40
2022-11-19T12:35:20.293Z,6.30
2022-11-19T12:38:38.558Z,6.30
2022-11-19T12:41:22.938Z,6.40
2022-11-19T12:43:59.441Z,6.40
2022-11-19T12:46:51.698Z,6.30
2022-11-19T12:49:28.653Z,6.40
2022-11-19T12:52:09.961Z,6.50
2022-11-19T12:54:52.588Z,6.40
2022-11-19T12:57:41.073Z,6.30
2022-11-19T13:00:26.500Z,6.20
2022-11-19T13:03:05.534Z,6.20
2022-11-19T13:05:38.873Z,6.20
2022-11-19T13:08:12.400Z,6.30
2022-11-19T13:10:40.823Z,6.30
2022-11-19T13:13:19.866Z,6.30
2022-11-19T13:16:00.535Z,6.20
2022-11-19T13:18:34.170Z,6.00
2022-11-19T13:21:05.912Z,6.00
2022-11-19T13:23:45.981Z,6.10
2022-11-19T13:26:30.210Z,6.10
2022-11-19T13:29:15.827Z,6.20
2022-11-19T13:31:48.775Z,6.30
2022-11-19T13:34:23.129Z,6.40
2022-11-19T13:37:01.936Z,6.30
2022-11-19T13:39:57.424Z,6.40
2022-11-19T13:42:54.623Z,6.50
2022-11-19T13:45:35.595Z,6.40
2022-11-19T13:48:16.985Z,6.40
2022-11-19T13:50:44.169Z,6.40
2022-11-19T13:53:15.090Z,6.40
2022-11-19T13:55:42.220Z,6.30
2022-11-19T13:58:18.558Z,6.30
2022-11-19T14:01:08.553Z,6.20
2022-11-19T14:03:57.743Z,6.10
2022-11-19T14:06:45.815Z,6.00
2022-11-19T14:09:32.529Z,6.00
2022-11-19T14:12:14.254Z,6.10
2022-11-19T14:15:09.136Z,6.10
2022-11-19T14:18:13.548Z,6.10
2022-11-19T14:21:10.876Z,6.10
2022-11-19T14:24:08.601Z,6.20
2022-11-19T14:26:52.301Z,6.30
2022-11-19T14:29:25.187Z,6.40
2022-11-19T14:32:02.783Z,6.30
2022-11-19T14:35:01.496Z,6.30
2022-11-19T14:37:37.466Z,6.30
2022-11-19T14:40:23.376Z,6.30
2022-11-19T14:43:31.830Z,6.40
2022-11-19T14:46:04.614Z,6.40
2022-11-19T14:48:41.055Z,6.30
2022-11-19T14:51:12.392Z,6.30
2022-11-19T14:53:50.498Z,6.30
2022-11-19T14:56:17.822Z,6.10
2022-11-19T14:58:58.072Z,6.10
2022-11-19T15:01:27.923Z,6.10
2022-11-19T15:04:05.908Z,6.10
2022-11-19T15:06:37.728Z,6.10
2022-11-19T15:09:10.821Z,6.10
2022-11-19T15:11:56.179Z,6.00
2022-11-19T15:14:28.840Z,5.90
2022-11-19T15:16:59.307Z,5.90
2022-11-19T15:19:37.933Z,5.70
2022-11-19T15:22:26.314Z,5.80
2022-11-19T15:24:53.444Z,5.90
2022-11-19T15:27:41.390Z,5.90
2022-11-19T15:30:31.687Z,6.00
2022-11-19T15:33:24.378Z,6.10
2022-11-19T15:36:15.705Z,6.00
2022-11-19T15:38:48.149Z,6.00
2022-11-19T15:41:17.255Z,5.90
2022-11-19T15:43:54.625Z,6.00
2022-11-19T15:46:34.922Z,5.90
2022-11-19T15:49:29.110Z,5.90
2022-11-19T15:51:55.870Z,5.90
2022-11-19T15:54:30.048Z,5.90
2022-11-19T15:57:15.213Z,5.80
2022-11-19T15:59:42.113Z,5.80
2022-11-19T16:02:36.727Z,5.80
2022-11-19T16:05:04.171Z,5.80
2022-11-19T16:07:31.039Z,5.90
2022-11-19T16:09:58.098Z,5.90
2022-11-19T16:12:45.025Z,5.90
2022-11-19T16:15:44.438Z,5.80
2022-11-19T16:18:15.295Z,5.80
2022-11-19T16:20:46.730Z,5.70
2022-11-19T16:23:21.715Z,5.70
2022-11-19T16:25:48.836Z,5.70
2022-11-19T16:28:26.240Z,5.70
2022-11-19T16:31:01.246Z,5.70
2022-11-19T16:33:29.527Z,5.70
2022-11-19T16:36:17.244Z,5.80
2022-11-19T16:38:46.541Z,5.60
2022-11-19T16:41:32.212Z,5.60
2022-11-19T16:43:59.083Z,5.60
2022-11-19T16:46:28.562Z,5.50
2022-11-19T16:48:57.016Z,5.60
2022-11-19T16:51:53.033Z,5.60
2022-11-19T16:54:48.714Z,5.70
2022-11-19T16:57:20.221Z,5.70
2022-11-19T16:59:57.772Z,5.70
2022-11-19T17:02:44.983Z,5.80
2022-11-19T17:05:14.486Z,5.70
2022-11-19T17:07:42.666Z,5.70
2022-11-19T17:10:12.553Z,5.70
2022-11-19T17:12:56.487Z,5.70
2022-11-19T17:15:38.665Z,5.60
2022-11-19T17:18:17.304Z,5.40
2022-11-19T17:20:44.077Z,5.30
2022-11-19T17:23:21.627Z,5.20
2022-11-19T17:25:52.342Z,5.30
2022-11-19T17:28:35.989Z,5.40
2022-11-19T17:31:16.983Z,5.40
2022-11-19T17:33:54.727Z,5.40
2022-11-19T17:36:22.328Z,5.40
2022-11-19T17:38:49.395Z,5.40
2022-11-19T17:41:38.081Z,5.50
2022-11-19T17:44:24.321Z,5.40
2022-11-19T17:46:51.087Z,5.50
2022-11-19T17:49:17.845Z,5.40
2022-11-19T17:51:44.670Z,5.40
2022-11-19T17:54:11.757Z,5.40
2022-11-19T17:56:38.570Z,5.40
2022-11-19T17:59:05.526Z,5.30
2022-11-19T18:01:32.372Z,5.30
2022-11-19T18:03:59.272Z,5.30
2022-11-19T18:06:26.100Z,5.40
2022-11-19T18:08:52.889Z,5.40
2022-11-19T18:11:21.688Z,5.40
2022-11-19T18:13:49.465Z,5.40
2022-11-19T18:16:24.392Z,5.40
2022-11-19T18:18:51.306Z,5.30
2022-11-19T18:21:20.584Z,5.30
2022-11-19T18:23:48.001Z,5.30
2022-11-19T18:26:17.401Z,5.30
2022-11-19T18:28:48.585Z,5.30
2022-11-19T18:31:18.135Z,5.40
2022-11-19T18:33:47.832Z,5.40
2022-11-19T18:36:15.300Z,5.40
2022-11-19T18:38:42.401Z,5.30
2022-11-19T18:41:12.725Z,5.20
2022-11-19T18:43:58.513Z,5.20
2022-11-19T18:46:25.564Z,5.20
2022-11-19T18:48:53.643Z,5.30
2022-11-19T18:51:20.873Z,5.20
2022-11-19T18:53:47.843Z,5.30
2022-11-19T18:56:18.089Z,5.30
2022-11-19T18:58:44.970Z,5.40
2022-11-19T19:01:13.066Z,5.40
2022-11-19T19:03:40.000Z,5.30
2022-11-19T19:06:07.570Z,5.30
2022-11-19T19:08:34.460Z,5.40
2022-11-19T19:11:21.818Z,5.30
2022-11-19T19:13:48.630Z,5.40
2022-11-19T19:16:15.435Z,5.40
2022-11-19T19:18:42.288Z,5.30
2022-11-19T19:21:21.931Z,5.40
2022-11-19T19:23:49.036Z,5.40
2022-11-19T19:26:16.907Z,5.40
2022-11-19T19:28:43.945Z,5.20
2022-11-19T19:31:16.425Z,5.30
2022-11-19T19:33:46.288Z,5.30
2022-11-19T19:36:13.312Z,5.40
2022-11-19T19:38:41.301Z,5.40
2022-11-19T19:41:13.077Z,5.40
2022-11-19T19:43:40.112Z,5.50
2022-11-19T19:46:13.509Z,5.50
2022-11-19T19:48:40.527Z,5.50
2022-11-19T19:51:07.300Z,5.50
2022-11-19T19:53:34.393Z,5.50
2022-11-19T19:56:10.113Z,5.50
2022-11-19T19:58:38.258Z,5.50
2022-11-19T20:01:08.714Z,5.50
2022-11-19T20:03:36.000Z,5.50
2022-11-19T20:06:03.583Z,5.60
2022-11-19T20:08:30.521Z,5.60
2022-11-19T20:11:01.891Z,5.50
2022-11-19T20:13:28.814Z,5.40
2022-11-19T20:15:56.609Z,5.40
2022-11-19T20:18:24.388Z,5.50
2022-11-19T20:20:51.435Z,5.40
2022-11-19T20:23:18.460Z,5.40
2022-11-19T20:25:45.330Z,5.40
2022-11-19T20:28:12.206Z,5.50
2022-11-19T20:30:39.063Z,5.60
2022-11-19T20:33:05.934Z,5.60
2022-11-19T20:35:32.851Z,5.60
2022-11-19T20:38:03.423Z,5.60
2022-11-19T20:40:30.613Z,5.70
2022-11-19T20:43:15.956Z,5.70
2022-11-19T20:45:42.802Z,5.70
2022-11-19T20:48:09.649Z,5.70
2022-11-19T20:50:36.565Z,5.70
2022-11-19T20:53:03.512Z,5.80
2022-11-19T20:55:30.346Z,5.70
2022-11-19T20:57:57.253Z,5.80
2022-11-19T21:00:24.266Z,5.70
2022-11-19T21:02:51.264Z,5.70
2022-11-19T21:05:18.167Z,5.70
2022-11-19T21:07:45.183Z,5.70
2022-11-19T21:10:12.223Z,5.80
2022-11-19T21:12:59.045Z,5.80
2022-11-19T21:15:25.944Z,5.80
2022-11-19T21:17:52.775Z,5.90
2022-11-19T21:20:19.667Z,5.80
2022-11-19T21:22:48.283Z,5.80
2022-11-19T21:25:15.204Z,5.80
2022-11-19T21:27:42.467Z,5.80
2022-11-19T21:30:11.312Z,5.80
2022-11-19T21:32:38.265Z,5.80
2022-11-19T21:35:05.552Z,5.70
2022-11-19T21:37:32.506Z,5.70
2022-11-19T21:39:59.426Z,5.70
2022-11-19T21:42:26.271Z,5.60
2022-11-19T21:44:53.628Z,5.50
2022-11-19T21:47:20.575Z,5.50
2022-11-19T21:49:47.469Z,5.50
2022-11-19T21:52:14.374Z,5.60
2022-11-19T21:54:41.282Z,5.60
2022-11-19T21:57:08.113Z,5.50
2022-11-19T21:59:35.958Z,5.50
2022-11-19T22:02:02.875Z,5.40
2022-11-19T22:04:30.770Z,5.40
2022-11-19T22:06:57.800Z,5.40
2022-11-19T22:09:26.404Z,5.40
2022-11-19T22:11:53.325Z,5.40
2022-11-19T22:14:20.227Z,5.30
2022-11-19T22:16:47.115Z,5.30
2022-11-19T22:19:14.179Z,5.20
2022-11-19T22:21:41.010Z,5.30
2022-11-19T22:24:07.883Z,5.30
2022-11-19T22:26:34.699Z,5.30
2022-11-19T22:29:01.498Z,5.20
2022-11-19T22:31:28.377Z,5.20
2022-11-19T22:33:55.630Z,5.20
2022-11-19T22:36:22.712Z,5.20
2022-11-19T22:38:50.053Z,5.20
2022-11-19T22:41:18.241Z,5.20
2022-11-19T22:43:45.038Z,5.20
2022-11-19T22:46:12.909Z,5.20
2022-11-19T22:48:39.914Z,5.20
2022-11-19T22:51:12.722Z,5.20
2022-11-19T22:53:39.642Z,5.20
2022-11-19T22:56:07.872Z,5.20
2022-11-19T22:58:34.922Z,5.20
2022-11-19T23:01:02.015Z,5.20
2022-11-19T23:03:29.111Z,5.20
2022-11-19T23:05:57.213Z,5.20
2022-11-19T23:08:24.023Z,5.20
2022-11-19T23:11:00.533Z,5.20
2022-11-19T23:13:34.215Z,5.20
2022-11-19T23:16:11.265Z,5.20
2022-11-19T23:18:53.264Z,5.20
2022-11-19T23:21:24.588Z,5.10
2022-11-19T23:23:51.604Z,5.10
2022-11-19T23:26:20.049Z,5.00
2022-11-19T23:28:46.973Z,5.00
2022-11-19T23:31:18.677Z,5.00
2022-11-19T23:33:45.811Z,5.00
2022-11-19T23:36:14.414Z,5.00
2022-11-19T23:38:41.347Z,5.00
2022-11-19T23:41:09.681Z,5.00
2022-11-19T23:43:36.535Z,5.00
2022-11-19T23:46:07.545Z,5.10
2022-11-19T23:48:34.660Z,5.00
2022-11-19T23:51:15.419Z,4.90
2022-11-19T23:53:42.257Z,4.90
2022-11-19T23:56:09.470Z,4.90
2022-11-19T23:58:36.349Z,4.90
